createdAt,value
2022-09-03T00:01:12.745Z,3.33
2022-09-03T00:03:43.439Z,3.45
2022-09-03T00:06:17.060Z,3.83
2022-09-03T00:08:46.481Z,3.10
2022-09-03T00:11:19.097Z,4.13
2022-09-03T00:13:52.618Z,4.18
2022-09-03T00:16:21.596Z,3.30
2022-09-03T00:18:51.315Z,3.60
2022-09-03T00:21:23.378Z,3.67
2022-09-03T00:23:50.507Z,3.67
2022-09-03T00:26:26.241Z,4.30
2022-09-03T00:29:03.923Z,4.03
2022-09-03T00:31:39.193Z,3.83
2022-09-03T00:34:16.028Z,3.80
2022-09-03T00:36:43.116Z,3.42
2022-09-03T00:39:13.785Z,3.40
2022-09-03T00:42:06.816Z,3.83
2022-09-03T00:44:51.331Z,4.00
2022-09-03T00:47:27.867Z,4.00
2022-09-03T00:49:57.210Z,3.97
2022-09-03T00:52:28.787Z,4.78
2022-09-03T00:55:32.288Z,3.97
2022-09-03T00:58:16.861Z,4.00
2022-09-03T01:00:45.089Z,3.45
2022-09-03T01:03:41.367Z,3.92
2022-09-03T01:06:20.067Z,4.13
2022-09-03T01:08:47.406Z,4.30
2022-09-03T01:11:31.115Z,4.13
2022-09-03T01:14:21.156Z,3.28
2022-09-03T01:16:51.579Z,2.97
2022-09-03T01:19:25.627Z,3.13
2022-09-03T01:22:01.155Z,3.58
2022-09-03T01:24:46.149Z,3.88
2022-09-03T01:27:15.192Z,3.63
2022-09-03T01:29:49.959Z,3.65
2022-09-03T01:32:29.903Z,4.82
2022-09-03T01:35:16.366Z,4.55
2022-09-03T01:37:48.804Z,3.75
2022-09-03T01:40:18.761Z,3.75
2022-09-03T01:42:54.341Z,4.22
2022-09-03T01:45:30.184Z,3.50
2022-09-03T01:47:56.472Z,3.65
2022-09-03T01:50:41.181Z,3.05
2022-09-03T01:53:25.358Z,3.63
2022-09-03T01:56:09.031Z,3.70
2022-09-03T01:59:01.031Z,3.10
2022-09-03T02:01:32.887Z,4.07
2022-09-03T02:04:00.126Z,3.20
2022-09-03T02:06:27.285Z,3.10
2022-09-03T02:08:53.880Z,3.80
2022-09-03T02:11:20.205Z,3.20
2022-09-03T02:13:54.247Z,3.03
2022-09-03T02:16:22.667Z,3.28
2022-09-03T02:18:50.984Z,3.65
2022-09-03T02:21:20.163Z,3.20
2022-09-03T02:23:47.086Z,3.97
2022-09-03T02:26:15.661Z,3.47
2022-09-03T02:28:41.954Z,3.60
2022-09-03T02:31:08.379Z,3.53
2022-09-03T02:33:39.131Z,3.90
2022-09-03T02:36:07.408Z,3.75
2022-09-03T02:38:34.213Z,3.78
2022-09-03T02:41:00.576Z,3.78
2022-09-03T02:43:35.763Z,4.03
2022-09-03T02:48:28.545Z,3.85
2022-09-03T02:50:54.847Z,3.80
2022-09-03T02:53:21.506Z,3.20
2022-09-03T02:55:48.019Z,3.80
2022-09-03T02:58:14.319Z,3.80
2022-09-03T03:00:40.856Z,4.57
2022-09-03T03:03:07.233Z,3.88
2022-09-03T03:05:55.443Z,4.38
2022-09-03T03:08:23.890Z,2.88
2022-09-03T03:10:52.100Z,3.40
2022-09-03T03:13:18.809Z,3.58
2022-09-03T03:15:45.771Z,3.72
2022-09-03T03:18:13.938Z,3.35
2022-09-03T03:20:41.029Z,3.33
2022-09-03T03:23:07.956Z,3.30
2022-09-03T03:25:34.869Z,3.53
2022-09-03T03:28:01.589Z,3.28
2022-09-03T03:30:27.955Z,3.85
2022-09-03T03:32:54.527Z,3.75
2022-09-03T03:35:20.860Z,3.75
2022-09-03T03:37:47.238Z,3.28
2022-09-03T03:40:13.968Z,4.25
2022-09-03T03:42:40.334Z,3.92
2022-09-03T03:45:07.172Z,3.95
2022-09-03T03:47:33.951Z,3.83
2022-09-03T03:50:00.321Z,3.72
2022-09-03T03:52:27.164Z,4.95
2022-09-03T03:54:53.828Z,3.83
2022-09-03T03:57:21.879Z,4.43
2022-09-03T03:59:48.491Z,3.60
2022-09-03T04:02:15.912Z,4.22
2022-09-03T04:04:42.432Z,3.95
2022-09-03T04:07:08.916Z,3.90
2022-09-03T04:09:35.496Z,4.10
2022-09-03T04:12:01.928Z,4.28
2022-09-03T04:14:28.248Z,4.20
2022-09-03T04:16:54.820Z,4.35
2022-09-03T04:19:21.204Z,4.32
2022-09-03T04:21:47.630Z,3.88
2022-09-03T04:24:13.983Z,4.03
2022-09-03T04:26:40.765Z,4.05
2022-09-03T04:29:08.331Z,4.20
2022-09-03T04:31:35.514Z,3.70
2022-09-03T04:34:01.825Z,3.03
2022-09-03T04:36:29.167Z,4.45
2022-09-03T04:38:55.902Z,3.85
2022-09-03T04:41:24.901Z,4.32
2022-09-03T04:43:51.965Z,4.43
2022-09-03T04:46:18.695Z,4.20
2022-09-03T04:48:47.913Z,4.28
2022-09-03T04:51:15.336Z,3.78
2022-09-03T04:53:42.959Z,4.47
2022-09-03T04:56:14.195Z,4.03
2022-09-03T04:58:41.325Z,3.33
2022-09-03T05:01:16.694Z,3.65
2022-09-03T05:03:43.279Z,3.78
2022-09-03T05:06:10.096Z,3.90
2022-09-03T05:08:36.725Z,3.35
2022-09-03T05:11:04.502Z,3.72
2022-09-03T05:13:31.195Z,4.38
2022-09-03T05:16:01.636Z,3.33
2022-09-03T05:18:28.664Z,3.47
2022-09-03T05:21:01.847Z,3.72
2022-09-03T05:23:28.543Z,4.82
2022-09-03T05:25:57.356Z,4.00
2022-09-03T05:28:24.372Z,3.45
2022-09-03T05:30:59.771Z,3.97
2022-09-03T05:35:53.672Z,3.42
2022-09-03T05:38:20.008Z,3.40
2022-09-03T05:40:46.318Z,3.55
2022-09-03T05:43:12.641Z,4.00
2022-09-03T05:45:38.972Z,3.58
2022-09-03T05:48:05.332Z,3.95
2022-09-03T05:50:31.997Z,3.50
2022-09-03T05:52:58.699Z,3.55
2022-09-03T05:55:25.054Z,3.78
2022-09-03T05:57:51.842Z,3.50
2022-09-03T06:00:19.764Z,3.53
2022-09-03T06:02:52.743Z,3.75
2022-09-03T06:05:19.927Z,4.18
2022-09-03T06:07:49.573Z,3.72
2022-09-03T06:10:18.180Z,3.70
2022-09-03T06:12:49.629Z,3.72
2022-09-03T06:15:16.458Z,3.00
2022-09-03T06:17:43.049Z,3.90
2022-09-03T06:20:09.602Z,3.72
2022-09-03T06:22:35.893Z,3.45
2022-09-03T06:25:02.223Z,3.50
2022-09-03T06:27:28.824Z,3.60
2022-09-03T06:29:57.136Z,4.18
2022-09-03T06:32:23.436Z,3.58
2022-09-03T06:34:49.738Z,3.70
2022-09-03T06:37:16.046Z,3.22
2022-09-03T06:39:42.402Z,3.47
2022-09-03T06:42:09.547Z,3.67
2022-09-03T06:44:35.877Z,3.65
2022-09-03T06:47:02.356Z,3.92
2022-09-03T06:49:28.752Z,3.88
2022-09-03T06:51:55.088Z,3.67
2022-09-03T06:54:21.409Z,4.00
2022-09-03T06:56:47.738Z,3.60
2022-09-03T06:59:14.840Z,4.15
2022-09-03T07:01:44.321Z,3.65
2022-09-03T07:04:12.598Z,3.97
2022-09-03T07:06:40.224Z,3.78
2022-09-03T07:09:07.287Z,3.63
2022-09-03T07:11:35.855Z,3.97
2022-09-03T07:14:03.248Z,4.18
2022-09-03T07:16:30.611Z,3.65
2022-09-03T07:18:57.173Z,4.10
2022-09-03T07:21:24.909Z,3.50
2022-09-03T07:23:52.472Z,4.28
2022-09-03T07:26:20.404Z,4.32
2022-09-03T07:28:47.197Z,3.63
2022-09-03T07:31:19.675Z,4.45
2022-09-03T07:33:46.589Z,4.47
2022-09-03T07:36:16.831Z,4.13
2022-09-03T07:38:46.786Z,3.45
2022-09-03T07:41:17.602Z,3.72
2022-09-03T07:43:54.100Z,3.55
2022-09-03T07:46:24.992Z,4.03
2022-09-03T07:48:52.295Z,3.47
2022-09-03T07:51:19.414Z,3.95
2022-09-03T07:53:46.062Z,4.53
2022-09-03T07:56:12.740Z,3.65
2022-09-03T07:58:39.547Z,3.88
2022-09-03T08:01:09.006Z,3.85
2022-09-03T08:03:38.526Z,4.15
2022-09-03T08:06:06.190Z,4.20
2022-09-03T08:08:35.577Z,3.88
2022-09-03T08:11:09.961Z,4.65
2022-09-03T08:13:40.744Z,4.47
2022-09-03T08:16:07.786Z,4.15
2022-09-03T08:18:37.228Z,3.88
2022-09-03T08:21:07.690Z,4.32
2022-09-03T08:23:36.871Z,4.68
2022-09-03T08:26:03.468Z,4.30
2022-09-03T08:28:30.204Z,4.57
2022-09-03T08:30:56.605Z,4.30
2022-09-03T08:33:37.175Z,4.65
2022-09-03T08:36:04.721Z,4.85
2022-09-03T08:38:34.691Z,4.18
2022-09-03T08:41:10.309Z,5.05
2022-09-03T08:43:55.558Z,4.88
2022-09-03T08:46:24.383Z,4.53
2022-09-03T08:48:53.128Z,5.03
2022-09-03T08:51:23.842Z,4.45
2022-09-03T08:53:55.097Z,3.88
2022-09-03T08:56:25.656Z,4.03
2022-09-03T08:58:52.022Z,4.97
2022-09-03T09:01:37.363Z,4.25
2022-09-03T09:06:46.333Z,4.97
2022-09-03T09:09:21.251Z,5.05
2022-09-03T09:11:58.842Z,5.43
2022-09-03T09:14:31.835Z,5.25
2022-09-03T09:16:58.332Z,5.30
2022-09-03T09:19:31.607Z,5.97
2022-09-03T09:22:02.776Z,6.20
2022-09-03T09:24:35.371Z,5.63
2022-09-03T09:27:04.410Z,5.20
2022-09-03T09:29:32.264Z,6.40
2022-09-03T09:31:58.844Z,5.93
2022-09-03T09:34:25.160Z,5.85
2022-09-03T09:36:55.609Z,6.13
2022-09-03T09:39:22.852Z,5.88
2022-09-03T09:42:08.175Z,6.72
2022-09-03T09:44:34.850Z,6.28
2022-09-03T09:47:04.052Z,6.05
2022-09-03T09:49:36.313Z,6.93
2022-09-03T09:52:12.608Z,6.68
2022-09-03T09:54:39.636Z,6.00
2022-09-03T09:57:07.961Z,6.05
2022-09-03T09:59:35.145Z,6.05
2022-09-03T10:02:09.231Z,6.32
2022-09-03T10:04:36.515Z,6.60
2022-09-03T10:07:19.858Z,5.93
2022-09-03T10:09:46.621Z,5.85
2022-09-03T10:12:24.444Z,5.95
2022-09-03T10:14:57.027Z,5.88
2022-09-03T10:17:43.671Z,5.55
2022-09-03T10:20:27.536Z,5.38
2022-09-03T10:22:57.292Z,6.35
2022-09-03T10:25:26.376Z,6.07
2022-09-03T10:27:54.511Z,6.35
2022-09-03T10:30:23.974Z,7.40
2022-09-03T10:33:10.666Z,6.57
2022-09-03T10:35:44.303Z,5.35
2022-09-03T10:38:14.721Z,4.40
2022-09-03T10:40:44.652Z,4.88
2022-09-03T10:43:15.452Z,4.38
2022-09-03T10:46:01.446Z,4.97
2022-09-03T10:48:40.171Z,4.85
2022-09-03T10:51:09.580Z,5.15
2022-09-03T10:53:54.817Z,4.32
2022-09-03T10:56:33.914Z,4.47
2022-09-03T10:59:02.982Z,5.03
2022-09-03T11:01:38.008Z,4.70
2022-09-03T11:06:37.562Z,4.95
2022-09-03T11:09:21.989Z,4.57
2022-09-03T11:11:53.558Z,4.30
2022-09-03T11:14:30.191Z,4.88
2022-09-03T11:16:59.871Z,5.22
2022-09-03T11:19:32.872Z,5.00
2022-09-03T11:21:59.432Z,4.25
2022-09-03T11:24:27.002Z,3.88
2022-09-03T11:27:16.076Z,4.80
2022-09-03T11:30:00.855Z,4.93
2022-09-03T11:32:49.686Z,4.13
2022-09-03T11:35:28.496Z,4.93
2022-09-03T11:37:58.979Z,4.13
2022-09-03T11:40:35.323Z,4.00
2022-09-03T11:43:12.506Z,4.03
2022-09-03T11:45:39.112Z,4.35
2022-09-03T11:48:18.988Z,4.38
2022-09-03T11:50:54.923Z,4.07
2022-09-03T11:53:28.222Z,4.03
2022-09-03T11:56:06.382Z,4.07
2022-09-03T11:58:34.722Z,4.40
2022-09-03T12:01:23.204Z,4.35
2022-09-03T12:03:59.319Z,3.15
2022-09-03T12:06:31.375Z,3.90
2022-09-03T12:08:57.671Z,4.18
2022-09-03T12:11:27.877Z,3.33
2022-09-03T12:14:10.420Z,3.58
2022-09-03T12:16:57.863Z,4.25
2022-09-03T12:19:49.090Z,4.22
2022-09-03T12:22:16.470Z,4.25
2022-09-03T12:24:44.934Z,3.92
2022-09-03T12:27:15.096Z,16.60
2022-09-03T12:29:50.125Z,7.70
2022-09-03T12:34:42.763Z,5.32
2022-09-03T12:37:18.813Z,4.18
2022-09-03T12:40:07.715Z,4.10
2022-09-03T12:42:34.495Z,3.88
2022-09-03T12:45:08.032Z,3.92
2022-09-03T12:47:38.577Z,3.92
2022-09-03T12:50:16.821Z,4.53
2022-09-03T12:52:46.366Z,3.90
2022-09-03T12:55:32.963Z,3.83
2022-09-03T12:58:02.605Z,4.43
2022-09-03T13:00:30.598Z,3.90
2022-09-03T13:03:00.476Z,4.20
2022-09-03T13:05:42.645Z,3.95
2022-09-03T13:08:10.835Z,3.72
2022-09-03T13:10:41.260Z,3.90
2022-09-03T13:13:17.854Z,3.88
2022-09-03T13:15:55.123Z,4.32
2022-09-03T13:18:42.672Z,3.65
2022-09-03T13:21:13.103Z,4.10
2022-09-03T13:23:42.266Z,3.83
2022-09-03T13:26:08.567Z,3.90
2022-09-03T13:28:45.389Z,3.60
2022-09-03T13:31:21.643Z,3.50
2022-09-03T13:33:50.859Z,3.58
2022-09-03T13:36:19.767Z,4.32
2022-09-03T13:39:06.140Z,3.72
2022-09-03T13:41:43.620Z,3.13
2022-09-03T13:44:14.326Z,3.10
2022-09-03T13:46:44.687Z,3.28
2022-09-03T13:49:55.979Z,3.47
2022-09-03T13:52:30.331Z,2.90
2022-09-03T13:55:00.291Z,3.05
2022-09-03T13:57:37.404Z,2.75
2022-09-03T14:00:10.245Z,2.97
2022-09-03T14:02:45.291Z,3.17
2022-09-03T14:05:19.301Z,2.78
2022-09-03T14:07:54.273Z,2.75
2022-09-03T14:12:55.525Z,3.03
2022-09-03T14:17:48.138Z,2.90
2022-09-03T14:20:49.802Z,3.72
2022-09-03T14:23:33.388Z,2.88
2022-09-03T14:26:00.731Z,3.08
2022-09-03T14:28:30.422Z,3.08
2022-09-03T14:31:09.072Z,3.50
2022-09-03T14:33:53.932Z,3.00
2022-09-03T14:36:23.330Z,3.33
2022-09-03T14:39:09.923Z,3.20
2022-09-03T14:41:36.235Z,3.38
2022-09-03T14:44:08.522Z,3.10
2022-09-03T14:46:53.067Z,3.00
2022-09-03T14:49:44.944Z,2.88
2022-09-03T14:52:21.323Z,3.95
2022-09-03T14:54:59.753Z,6.35
2022-09-03T14:57:32.443Z,4.30
2022-09-03T15:00:04.805Z,3.78
2022-09-03T15:02:34.242Z,5.10
2022-09-03T15:05:00.583Z,4.32
2022-09-03T15:07:36.382Z,3.85
2022-09-03T15:10:24.752Z,3.75
2022-09-03T15:12:51.026Z,3.03
2022-09-03T15:15:32.635Z,3.55
2022-09-03T15:18:05.168Z,2.90
2022-09-03T15:20:33.175Z,3.53
2022-09-03T15:23:02.568Z,3.35
2022-09-03T15:25:39.302Z,2.90
2022-09-03T15:28:17.180Z,2.42
2022-09-03T15:30:53.743Z,3.03
2022-09-03T15:33:29.419Z,3.05
2022-09-03T15:36:25.388Z,2.47
2022-09-03T15:39:03.396Z,2.83
2022-09-03T15:41:29.720Z,2.97
2022-09-03T15:43:58.957Z,2.58
2022-09-03T15:46:43.921Z,2.97
2022-09-03T15:49:30.489Z,2.60
2022-09-03T15:52:02.474Z,2.90
2022-09-03T15:54:37.248Z,2.75
2022-09-03T15:57:06.807Z,3.03
2022-09-03T15:59:40.111Z,3.20
2022-09-03T16:02:10.940Z,3.00
2022-09-03T16:04:40.344Z,3.40
2022-09-03T16:07:19.805Z,2.83
2022-09-03T16:10:20.686Z,2.85
2022-09-03T16:12:56.964Z,3.10
2022-09-03T16:15:29.027Z,2.85
2022-09-03T16:17:59.509Z,3.28
2022-09-03T16:20:32.225Z,3.88
2022-09-03T16:23:05.690Z,3.17
2022-09-03T16:25:35.768Z,3.65
2022-09-03T16:28:12.807Z,3.20
2022-09-03T16:30:50.735Z,3.50
2022-09-03T16:33:23.215Z,3.13
2022-09-03T16:35:59.160Z,3.30
2022-09-03T16:38:38.646Z,3.38
2022-09-03T16:41:37.483Z,3.08
2022-09-03T16:44:18.341Z,3.00
2022-09-03T16:47:02.747Z,3.30
2022-09-03T16:50:06.425Z,3.25
2022-09-03T16:52:41.677Z,2.70
2022-09-03T16:55:17.459Z,3.30
2022-09-03T16:57:44.850Z,3.20
2022-09-03T17:00:14.575Z,3.22
2022-09-03T17:02:42.400Z,3.28
2022-09-03T17:05:18.175Z,3.03
2022-09-03T17:07:54.264Z,3.35
2022-09-03T17:10:23.587Z,4.28
2022-09-03T17:12:50.567Z,3.03
2022-09-03T17:15:22.091Z,3.70
2022-09-03T17:17:49.432Z,3.20
2022-09-03T17:20:15.736Z,3.40
2022-09-03T17:23:00.738Z,3.30
2022-09-03T17:25:35.319Z,3.55
2022-09-03T17:28:05.294Z,2.70
2022-09-03T17:30:49.473Z,3.05
2022-09-03T17:33:37.627Z,2.80
2022-09-03T17:36:07.809Z,3.05
2022-09-03T17:38:42.675Z,3.00
2022-09-03T17:41:29.091Z,3.15
2022-09-03T17:44:04.404Z,2.80
2022-09-03T17:46:30.838Z,2.75
2022-09-03T17:49:01.230Z,2.65
2022-09-03T17:51:42.230Z,2.83
2022-09-03T17:54:13.038Z,3.20
2022-09-03T17:56:39.327Z,2.85
2022-09-03T17:59:30.778Z,3.20
2022-09-03T18:02:05.619Z,3.72
2022-09-03T18:04:44.144Z,3.17
2022-09-03T18:07:15.282Z,3.00
2022-09-03T18:09:54.076Z,4.07
2022-09-03T18:12:28.003Z,2.83
2022-09-03T18:15:05.778Z,3.20
2022-09-03T18:17:41.403Z,3.60
2022-09-03T18:20:27.834Z,3.08
2022-09-03T18:23:12.717Z,3.10
2022-09-03T18:25:58.723Z,4.70
2022-09-03T18:28:50.719Z,4.85
2022-09-03T18:31:35.728Z,4.45
2022-09-03T18:34:21.748Z,4.45
2022-09-03T18:37:07.340Z,3.55
2022-09-03T18:39:52.543Z,4.45
2022-09-03T18:42:56.610Z,3.47
2022-09-03T18:46:34.603Z,4.18
2022-09-03T18:49:09.005Z,4.03
2022-09-03T18:52:12.770Z,4.03
2022-09-03T18:55:09.992Z,3.67
2022-09-03T18:58:01.243Z,3.65
2022-09-03T19:00:49.214Z,3.55
2022-09-03T19:03:39.235Z,3.55
2022-09-03T19:06:34.059Z,4.03
2022-09-03T19:09:35.142Z,3.50
2022-09-03T19:12:39.091Z,3.90
2022-09-03T19:15:38.890Z,4.32
2022-09-03T19:18:23.884Z,6.82
2022-09-03T19:21:18.444Z,4.80
2022-09-03T19:24:03.525Z,4.93
2022-09-03T19:27:29.846Z,3.95
2022-09-03T19:30:23.606Z,4.60
2022-09-03T19:33:08.919Z,3.55
2022-09-03T19:36:13.280Z,4.35
2022-09-03T19:39:12.571Z,4.25
2022-09-03T19:42:03.264Z,4.55
2022-09-03T19:44:48.203Z,4.28
2022-09-03T19:47:39.774Z,3.53
2022-09-03T19:50:38.241Z,3.90
2022-09-03T19:53:31.602Z,4.03
2022-09-03T19:56:18.802Z,4.18
2022-09-03T19:59:08.348Z,3.92
2022-09-03T20:01:55.158Z,4.70
2022-09-03T20:04:44.964Z,5.43
2022-09-03T20:07:30.062Z,4.07
2022-09-03T20:10:16.420Z,4.68
2022-09-03T20:12:45.298Z,4.53
2022-09-03T20:15:11.716Z,4.38
2022-09-03T20:18:02.499Z,5.88
2022-09-03T20:20:36.115Z,6.95
2022-09-03T20:23:24.590Z,7.15
2022-09-03T20:25:59.064Z,7.68
2022-09-03T20:28:42.356Z,9.20
2022-09-03T20:31:08.742Z,9.50
2022-09-03T20:33:44.110Z,9.20
2022-09-03T20:36:19.285Z,9.20
2022-09-03T20:41:11.943Z,8.30
2022-09-03T20:43:38.372Z,8.30
2022-09-03T20:46:13.895Z,8.80
2022-09-03T20:48:56.075Z,8.35
2022-09-03T20:51:24.713Z,7.63
2022-09-03T20:54:03.562Z,8.25
2022-09-03T20:56:29.884Z,7.30
2022-09-03T20:59:02.332Z,7.20
2022-09-03T21:01:34.610Z,7.00
2022-09-03T21:04:20.741Z,7.72
2022-09-03T21:06:50.672Z,6.90
2022-09-03T21:09:16.981Z,5.32
2022-09-03T21:12:02.982Z,5.70
2022-09-03T21:14:35.228Z,10.52
2022-09-03T21:17:20.066Z,8.10
2022-09-03T21:20:09.697Z,8.10
2022-09-03T21:22:54.811Z,7.53
2022-09-03T21:25:32.823Z,7.72
2022-09-03T21:28:19.399Z,6.60
2022-09-03T21:30:49.470Z,7.63
2022-09-03T21:33:44.913Z,8.07
2022-09-03T21:36:16.554Z,8.85
2022-09-03T21:38:46.459Z,7.82
2022-09-03T21:41:18.872Z,7.80
2022-09-03T21:43:48.930Z,6.78
2022-09-03T21:46:21.015Z,7.00
2022-09-03T21:48:50.950Z,7.43
2022-09-03T21:51:21.829Z,8.27
2022-09-03T21:53:50.608Z,7.57
2022-09-03T21:56:35.341Z,7.97
2022-09-03T21:59:08.285Z,7.00
2022-09-03T22:01:45.805Z,7.05
2022-09-03T22:04:12.415Z,7.30
2022-09-03T22:06:45.232Z,7.63
2022-09-03T22:09:20.256Z,8.65
2022-09-03T22:11:51.521Z,8.98
2022-09-03T22:14:20.899Z,8.88
2022-09-03T22:17:09.990Z,11.95
2022-09-03T22:19:38.908Z,5.75
2022-09-03T22:22:12.707Z,11.88
2022-09-03T22:24:58.837Z,9.55
2022-09-03T22:27:32.874Z,8.35
2022-09-03T22:30:05.823Z,11.13
2022-09-03T22:32:51.057Z,8.60
2022-09-03T22:35:28.938Z,11.02
2022-09-03T22:38:01.028Z,11.10
2022-09-03T22:40:42.721Z,10.77
2022-09-03T22:43:29.208Z,11.80
2022-09-03T22:46:04.095Z,11.20
2022-09-03T22:48:48.861Z,10.05
2022-09-03T22:51:21.052Z,9.40
2022-09-03T22:53:51.044Z,11.18
2022-09-03T22:56:23.754Z,9.63
2022-09-03T22:58:58.274Z,10.27
2022-09-03T23:01:36.556Z,9.63
2022-09-03T23:04:03.225Z,9.30
2022-09-03T23:06:34.244Z,8.40
2022-09-03T23:09:05.167Z,8.57
2022-09-03T23:12:00.759Z,8.65
2022-09-03T23:14:51.071Z,8.07
2022-09-03T23:20:16.141Z,8.48
2022-09-03T23:22:51.461Z,7.78
2022-09-03T23:25:22.170Z,7.45
2022-09-03T23:27:58.497Z,8.60
2022-09-03T23:30:24.823Z,7.07
2022-09-03T23:32:53.355Z,7.55
2022-09-03T23:35:21.320Z,7.72
2022-09-03T23:37:50.492Z,7.40
2022-09-03T23:40:30.078Z,8.25
2022-09-03T23:43:02.232Z,9.32
2022-09-03T23:45:47.122Z,8.57
2022-09-03T23:48:36.576Z,9.50
2022-09-03T23:51:29.182Z,8.48
2022-09-03T23:54:10.989Z,7.80
2022-09-03T23:56:49.364Z,9.00
2022-09-03T23:59:29.238Z,9.35
